sensor_id;sensor_type;location;lat;lon;timestamp;P1;durP1;ratioP1;P2;durP2;ratioP2
12878;SDS011;20617;49.476;10.986;2023-02-12T00:01:07;39.88;;;27.45;;
12878;SDS011;20617;49.476;10.986;2023-02-12T00:03:15;37.10;;;26.42;;
12878;SDS011;20617;49.476;10.986;2023-02-12T00:05:20;38.33;;;27.88;;
12878;SDS011;20617;49.476;10.986;2023-02-12T00:07:28;38.95;;;28.33;;
12878;SDS011;20617;49.476;10.986;2023-02-12T00:09:33;36.40;;;26.08;;
12878;SDS011;20617;49.476;10.986;2023-02-12T00:11:39;37.28;;;26.13;;
12878;SDS011;20617;49.476;10.986;2023-02-12T00:13:45;34.60;;;24.73;;
12878;SDS011;20617;49.476;10.986;2023-02-12T00:15:50;39.33;;;28.05;;
12878;SDS011;20617;49.476;10.986;2023-02-12T00:17:56;37.00;;;27.17;;
12878;SDS011;20617;49.476;10.986;2023-02-12T00:20:04;33.10;;;23.30;;
12878;SDS011;20617;49.476;10.986;2023-02-12T00:22:09;32.67;;;24.63;;
12878;SDS011;20617;49.476;10.986;2023-02-12T00:24:14;32.20;;;24.42;;
12878;SDS011;20617;49.476;10.986;2023-02-12T00:26:20;34.50;;;25.85;;
12878;SDS011;20617;49.476;10.986;2023-02-12T00:28:26;33.42;;;25.20;;
12878;SDS011;20617;49.476;10.986;2023-02-12T00:30:31;34.42;;;24.70;;
12878;SDS011;20617;49.476;10.986;2023-02-12T00:32:36;35.47;;;23.33;;
12878;SDS011;20617;49.476;10.986;2023-02-12T00:34:41;30.75;;;23.48;;
12878;SDS011;20617;49.476;10.986;2023-02-12T00:36:48;32.80;;;22.77;;
12878;SDS011;20617;49.476;10.986;2023-02-12T00:38:56;29.17;;;22.45;;
12878;SDS011;20617;49.476;10.986;2023-02-12T00:43:06;32.17;;;21.73;;
12878;SDS011;20617;49.476;10.986;2023-02-12T00:45:11;29.67;;;21.70;;
12878;SDS011;20617;49.476;10.986;2023-02-12T00:49:23;34.42;;;23.02;;
12878;SDS011;20617;49.476;10.986;2023-02-12T00:53:36;30.58;;;22.73;;
12878;SDS011;20617;49.476;10.986;2023-02-12T00:55:41;30.00;;;22.88;;
12878;SDS011;20617;49.476;10.986;2023-02-12T00:57:46;31.58;;;23.10;;
12878;SDS011;20617;49.476;10.986;2023-02-12T00:59:51;26.58;;;20.45;;
12878;SDS011;20617;49.476;10.986;2023-02-12T01:01:57;30.38;;;20.95;;
12878;SDS011;20617;49.476;10.986;2023-02-12T01:04:02;31.88;;;22.83;;
12878;SDS011;20617;49.476;10.986;2023-02-12T01:06:07;32.47;;;23.08;;
12878;SDS011;20617;49.476;10.986;2023-02-12T01:08:13;31.52;;;21.88;;
12878;SDS011;20617;49.476;10.986;2023-02-12T01:10:22;30.52;;;21.85;;
12878;SDS011;20617;49.476;10.986;2023-02-12T01:12:27;32.97;;;22.67;;
12878;SDS011;20617;49.476;10.986;2023-02-12T01:14:32;31.65;;;23.40;;
12878;SDS011;20617;49.476;10.986;2023-02-12T01:16:37;30.77;;;22.67;;
12878;SDS011;20617;49.476;10.986;2023-02-12T01:18:43;31.95;;;22.13;;
12878;SDS011;20617;49.476;10.986;2023-02-12T01:20:49;31.20;;;21.70;;
12878;SDS011;20617;49.476;10.986;2023-02-12T01:22:57;29.30;;;21.38;;
12878;SDS011;20617;49.476;10.986;2023-02-12T01:27:09;29.00;;;22.52;;
12878;SDS011;20617;49.476;10.986;2023-02-12T01:29:14;32.60;;;23.80;;
12878;SDS011;20617;49.476;10.986;2023-02-12T01:31:19;28.27;;;21.73;;
12878;SDS011;20617;49.476;10.986;2023-02-12T01:33:27;34.60;;;23.27;;
12878;SDS011;20617;49.476;10.986;2023-02-12T01:35:32;34.97;;;24.40;;
12878;SDS011;20617;49.476;10.986;2023-02-12T01:37:38;29.23;;;22.23;;
12878;SDS011;20617;49.476;10.986;2023-02-12T01:39:42;32.40;;;23.75;;
12878;SDS011;20617;49.476;10.986;2023-02-12T01:41:49;35.28;;;24.85;;
12878;SDS011;20617;49.476;10.986;2023-02-12T01:46:29;33.78;;;24.70;;
12878;SDS011;20617;49.476;10.986;2023-02-12T01:48:34;31.65;;;24.15;;
12878;SDS011;20617;49.476;10.986;2023-02-12T01:50:42;31.05;;;23.20;;
12878;SDS011;20617;49.476;10.986;2023-02-12T01:52:50;33.97;;;24.38;;
12878;SDS011;20617;49.476;10.986;2023-02-12T01:54:59;30.20;;;22.08;;
12878;SDS011;20617;49.476;10.986;2023-02-12T01:57:08;37.70;;;26.95;;
12878;SDS011;20617;49.476;10.986;2023-02-12T01:59:16;32.25;;;23.38;;
12878;SDS011;20617;49.476;10.986;2023-02-12T02:01:26;35.38;;;25.08;;
12878;SDS011;20617;49.476;10.986;2023-02-12T02:03:34;38.70;;;26.52;;
12878;SDS011;20617;49.476;10.986;2023-02-12T02:05:42;36.75;;;26.60;;
12878;SDS011;20617;49.476;10.986;2023-02-12T02:07:57;35.92;;;25.75;;
12878;SDS011;20617;49.476;10.986;2023-02-12T02:10:04;34.63;;;25.65;;
12878;SDS011;20617;49.476;10.986;2023-02-12T02:12:11;38.05;;;27.38;;
12878;SDS011;20617;49.476;10.986;2023-02-12T02:14:31;35.30;;;25.65;;
12878;SDS011;20617;49.476;10.986;2023-02-12T02:16:40;36.15;;;26.10;;
12878;SDS011;20617;49.476;10.986;2023-02-12T02:18:52;40.83;;;27.10;;
12878;SDS011;20617;49.476;10.986;2023-02-12T02:21:15;39.17;;;29.92;;
12878;SDS011;20617;49.476;10.986;2023-02-12T02:26:15;39.47;;;27.20;;
12878;SDS011;20617;49.476;10.986;2023-02-12T02:28:46;34.58;;;24.92;;
12878;SDS011;20617;49.476;10.986;2023-02-12T02:31:15;35.17;;;24.40;;
12878;SDS011;20617;49.476;10.986;2023-02-12T02:33:31;33.83;;;24.58;;
12878;SDS011;20617;49.476;10.986;2023-02-12T02:35:44;33.40;;;24.33;;
12878;SDS011;20617;49.476;10.986;2023-02-12T02:37:59;37.58;;;25.60;;
12878;SDS011;20617;49.476;10.986;2023-02-12T02:40:12;29.00;;;22.25;;
12878;SDS011;20617;49.476;10.986;2023-02-12T02:42:22;34.17;;;24.63;;
12878;SDS011;20617;49.476;10.986;2023-02-12T02:44:34;36.03;;;26.23;;
12878;SDS011;20617;49.476;10.986;2023-02-12T02:46:45;33.80;;;25.23;;
12878;SDS011;20617;49.476;10.986;2023-02-12T02:48:52;41.08;;;27.08;;
12878;SDS011;20617;49.476;10.986;2023-02-12T02:51:03;35.42;;;24.98;;
12878;SDS011;20617;49.476;10.986;2023-02-12T02:53:13;31.95;;;23.27;;
12878;SDS011;20617;49.476;10.986;2023-02-12T02:55:23;33.67;;;23.45;;
12878;SDS011;20617;49.476;10.986;2023-02-12T02:57:34;32.20;;;23.48;;
12878;SDS011;20617;49.476;10.986;2023-02-12T02:59:42;31.80;;;23.45;;
12878;SDS011;20617;49.476;10.986;2023-02-12T03:01:56;30.52;;;23.05;;
12878;SDS011;20617;49.476;10.986;2023-02-12T03:04:07;30.73;;;23.10;;
12878;SDS011;20617;49.476;10.986;2023-02-12T03:06:17;30.35;;;22.83;;
12878;SDS011;20617;49.476;10.986;2023-02-12T03:08:28;33.95;;;23.77;;
12878;SDS011;20617;49.476;10.986;2023-02-12T03:10:38;27.33;;;21.40;;
12878;SDS011;20617;49.476;10.986;2023-02-12T03:12:47;31.77;;;24.13;;
12878;SDS011;20617;49.476;10.986;2023-02-12T03:14:58;41.40;;;28.15;;
12878;SDS011;20617;49.476;10.986;2023-02-12T03:17:11;34.08;;;25.00;;
12878;SDS011;20617;49.476;10.986;2023-02-12T03:19:21;35.90;;;25.23;;
12878;SDS011;20617;49.476;10.986;2023-02-12T03:21:29;31.30;;;23.50;;
12878;SDS011;20617;49.476;10.986;2023-02-12T03:23:38;29.17;;;21.88;;
12878;SDS011;20617;49.476;10.986;2023-02-12T03:25:49;34.35;;;24.05;;
12878;SDS011;20617;49.476;10.986;2023-02-12T03:27:59;38.65;;;27.70;;
12878;SDS011;20617;49.476;10.986;2023-02-12T03:30:11;35.55;;;25.60;;
12878;SDS011;20617;49.476;10.986;2023-02-12T03:32:26;35.03;;;24.50;;
12878;SDS011;20617;49.476;10.986;2023-02-12T03:34:37;33.58;;;22.77;;
12878;SDS011;20617;49.476;10.986;2023-02-12T03:36:50;34.25;;;25.63;;
12878;SDS011;20617;49.476;10.986;2023-02-12T03:39:00;35.83;;;24.10;;
12878;SDS011;20617;49.476;10.986;2023-02-12T03:41:13;36.10;;;25.00;;
12878;SDS011;20617;49.476;10.986;2023-02-12T03:43:26;36.65;;;25.38;;
12878;SDS011;20617;49.476;10.986;2023-02-12T03:45:38;34.70;;;24.48;;
12878;SDS011;20617;49.476;10.986;2023-02-12T03:47:52;35.92;;;25.83;;
12878;SDS011;20617;49.476;10.986;2023-02-12T03:50:07;35.83;;;26.17;;
12878;SDS011;20617;49.476;10.986;2023-02-12T03:52:17;34.88;;;24.73;;
12878;SDS011;20617;49.476;10.986;2023-02-12T03:54:22;36.08;;;23.48;;
12878;SDS011;20617;49.476;10.986;2023-02-12T03:56:29;33.80;;;23.42;;
12878;SDS011;20617;49.476;10.986;2023-02-12T03:58:38;33.28;;;23.10;;
12878;SDS011;20617;49.476;10.986;2023-02-12T04:00:46;40.88;;;26.98;;
12878;SDS011;20617;49.476;10.986;2023-02-12T04:02:54;40.38;;;25.98;;
12878;SDS011;20617;49.476;10.986;2023-02-12T04:05:03;37.40;;;27.30;;
12878;SDS011;20617;49.476;10.986;2023-02-12T04:07:08;37.30;;;25.42;;
12878;SDS011;20617;49.476;10.986;2023-02-12T04:11:20;33.22;;;23.05;;
12878;SDS011;20617;49.476;10.986;2023-02-12T04:13:34;38.20;;;26.02;;
12878;SDS011;20617;49.476;10.986;2023-02-12T04:15:50;35.90;;;25.08;;
12878;SDS011;20617;49.476;10.986;2023-02-12T04:18:09;36.83;;;26.10;;
12878;SDS011;20617;49.476;10.986;2023-02-12T04:20:21;38.78;;;27.38;;
12878;SDS011;20617;49.476;10.986;2023-02-12T04:22:35;36.45;;;25.65;;
12878;SDS011;20617;49.476;10.986;2023-02-12T04:24:51;35.97;;;24.35;;
12878;SDS011;20617;49.476;10.986;2023-02-12T04:27:04;33.80;;;23.40;;
12878;SDS011;20617;49.476;10.986;2023-02-12T04:29:17;31.48;;;23.67;;
12878;SDS011;20617;49.476;10.986;2023-02-12T04:31:30;30.88;;;22.75;;
12878;SDS011;20617;49.476;10.986;2023-02-12T04:33:48;32.05;;;23.35;;
12878;SDS011;20617;49.476;10.986;2023-02-12T04:36:02;39.03;;;25.70;;
12878;SDS011;20617;49.476;10.986;2023-02-12T04:38:13;34.55;;;24.30;;
12878;SDS011;20617;49.476;10.986;2023-02-12T04:40:22;35.47;;;24.77;;
12878;SDS011;20617;49.476;10.986;2023-02-12T04:44:33;34.28;;;24.58;;
12878;SDS011;20617;49.476;10.986;2023-02-12T04:46:42;32.20;;;23.25;;
12878;SDS011;20617;49.476;10.986;2023-02-12T04:48:52;32.17;;;22.35;;
12878;SDS011;20617;49.476;10.986;2023-02-12T04:50:58;31.17;;;23.17;;
12878;SDS011;20617;49.476;10.986;2023-02-12T04:53:03;29.70;;;22.00;;
12878;SDS011;20617;49.476;10.986;2023-02-12T04:55:07;39.35;;;27.05;;
12878;SDS011;20617;49.476;10.986;2023-02-12T04:57:12;33.03;;;22.83;;
12878;SDS011;20617;49.476;10.986;2023-02-12T04:59:17;30.85;;;22.25;;
12878;SDS011;20617;49.476;10.986;2023-02-12T05:01:22;38.72;;;27.23;;
12878;SDS011;20617;49.476;10.986;2023-02-12T05:03:29;36.40;;;25.70;;
12878;SDS011;20617;49.476;10.986;2023-02-12T05:05:37;36.08;;;26.25;;
12878;SDS011;20617;49.476;10.986;2023-02-12T05:07:41;41.60;;;27.75;;
12878;SDS011;20617;49.476;10.986;2023-02-12T05:09:46;36.30;;;25.75;;
12878;SDS011;20617;49.476;10.986;2023-02-12T05:11:51;37.97;;;26.90;;
12878;SDS011;20617;49.476;10.986;2023-02-12T05:13:56;43.92;;;28.88;;
12878;SDS011;20617;49.476;10.986;2023-02-12T05:16:02;42.63;;;29.27;;
12878;SDS011;20617;49.476;10.986;2023-02-12T05:18:08;36.90;;;25.55;;
12878;SDS011;20617;49.476;10.986;2023-02-12T05:20:13;36.78;;;24.60;;
12878;SDS011;20617;49.476;10.986;2023-02-12T05:22:20;33.50;;;25.00;;
12878;SDS011;20617;49.476;10.986;2023-02-12T05:24:25;33.97;;;24.45;;
12878;SDS011;20617;49.476;10.986;2023-02-12T05:26:30;36.97;;;24.88;;
12878;SDS011;20617;49.476;10.986;2023-02-12T05:28:35;35.05;;;25.38;;
12878;SDS011;20617;49.476;10.986;2023-02-12T05:30:40;38.17;;;25.83;;
12878;SDS011;20617;49.476;10.986;2023-02-12T05:32:45;42.10;;;27.60;;
12878;SDS011;20617;49.476;10.986;2023-02-12T05:34:50;40.88;;;27.08;;
12878;SDS011;20617;49.476;10.986;2023-02-12T05:36:55;42.22;;;28.35;;
12878;SDS011;20617;49.476;10.986;2023-02-12T05:39:05;44.60;;;28.52;;
12878;SDS011;20617;49.476;10.986;2023-02-12T05:41:11;48.30;;;31.75;;
12878;SDS011;20617;49.476;10.986;2023-02-12T05:43:17;47.40;;;29.83;;
12878;SDS011;20617;49.476;10.986;2023-02-12T05:45:22;41.42;;;28.88;;
12878;SDS011;20617;49.476;10.986;2023-02-12T05:47:28;43.85;;;28.02;;
12878;SDS011;20617;49.476;10.986;2023-02-12T05:49:33;44.13;;;28.75;;
12878;SDS011;20617;49.476;10.986;2023-02-12T05:51:38;45.55;;;29.58;;
12878;SDS011;20617;49.476;10.986;2023-02-12T05:53:43;44.05;;;28.63;;
12878;SDS011;20617;49.476;10.986;2023-02-12T05:55:50;46.08;;;29.95;;
12878;SDS011;20617;49.476;10.986;2023-02-12T05:57:57;45.85;;;29.98;;
12878;SDS011;20617;49.476;10.986;2023-02-12T06:00:03;45.33;;;29.30;;
12878;SDS011;20617;49.476;10.986;2023-02-12T06:02:12;43.22;;;29.00;;
12878;SDS011;20617;49.476;10.986;2023-02-12T06:04:18;44.15;;;28.55;;
12878;SDS011;20617;49.476;10.986;2023-02-12T06:06:24;45.25;;;28.92;;
12878;SDS011;20617;49.476;10.986;2023-02-12T06:08:29;47.95;;;30.27;;
12878;SDS011;20617;49.476;10.986;2023-02-12T06:12:43;38.33;;;26.38;;
12878;SDS011;20617;49.476;10.986;2023-02-12T06:14:47;37.63;;;27.08;;
12878;SDS011;20617;49.476;10.986;2023-02-12T06:16:52;35.58;;;25.60;;
12878;SDS011;20617;49.476;10.986;2023-02-12T06:23:09;45.50;;;31.08;;
12878;SDS011;20617;49.476;10.986;2023-02-12T06:25:14;44.00;;;29.05;;
12878;SDS011;20617;49.476;10.986;2023-02-12T06:27:19;42.58;;;30.83;;
12878;SDS011;20617;49.476;10.986;2023-02-12T06:29:26;42.67;;;28.20;;
12878;SDS011;20617;49.476;10.986;2023-02-12T06:31:33;39.10;;;26.90;;
12878;SDS011;20617;49.476;10.986;2023-02-12T06:33:39;38.67;;;27.00;;
12878;SDS011;20617;49.476;10.986;2023-02-12T06:35:44;40.88;;;28.05;;
12878;SDS011;20617;49.476;10.986;2023-02-12T06:37:49;38.63;;;28.13;;
12878;SDS011;20617;49.476;10.986;2023-02-12T06:39:54;37.72;;;27.58;;
12878;SDS011;20617;49.476;10.986;2023-02-12T06:41:59;40.17;;;27.52;;
12878;SDS011;20617;49.476;10.986;2023-02-12T06:44:05;39.42;;;26.33;;
12878;SDS011;20617;49.476;10.986;2023-02-12T06:48:17;38.05;;;25.77;;
12878;SDS011;20617;49.476;10.986;2023-02-12T06:50:23;39.00;;;26.90;;
12878;SDS011;20617;49.476;10.986;2023-02-12T06:52:28;36.08;;;25.85;;
12878;SDS011;20617;49.476;10.986;2023-02-12T06:54:32;36.47;;;25.70;;
12878;SDS011;20617;49.476;10.986;2023-02-12T06:56:37;35.25;;;24.55;;
12878;SDS011;20617;49.476;10.986;2023-02-12T06:58:43;35.38;;;25.30;;
12878;SDS011;20617;49.476;10.986;2023-02-12T07:00:50;37.35;;;25.20;;
12878;SDS011;20617;49.476;10.986;2023-02-12T07:02:58;37.38;;;25.25;;
12878;SDS011;20617;49.476;10.986;2023-02-12T07:05:03;33.75;;;23.85;;
12878;SDS011;20617;49.476;10.986;2023-02-12T07:07:11;39.78;;;26.30;;
12878;SDS011;20617;49.476;10.986;2023-02-12T07:09:16;37.72;;;26.05;;
12878;SDS011;20617;49.476;10.986;2023-02-12T07:11:22;37.50;;;24.73;;
12878;SDS011;20617;49.476;10.986;2023-02-12T07:13:27;35.03;;;26.13;;
12878;SDS011;20617;49.476;10.986;2023-02-12T07:15:37;38.05;;;26.45;;
12878;SDS011;20617;49.476;10.986;2023-02-12T07:17:42;40.70;;;27.83;;
12878;SDS011;20617;49.476;10.986;2023-02-12T07:19:50;41.50;;;28.63;;
12878;SDS011;20617;49.476;10.986;2023-02-12T07:21:57;36.75;;;25.85;;
12878;SDS011;20617;49.476;10.986;2023-02-12T07:26:09;38.15;;;26.00;;
12878;SDS011;20617;49.476;10.986;2023-02-12T07:28:15;38.50;;;26.05;;
12878;SDS011;20617;49.476;10.986;2023-02-12T07:30:20;39.97;;;27.67;;
12878;SDS011;20617;49.476;10.986;2023-02-12T07:32:25;39.60;;;26.75;;
12878;SDS011;20617;49.476;10.986;2023-02-12T07:34:30;34.78;;;25.42;;
12878;SDS011;20617;49.476;10.986;2023-02-12T07:36:38;37.92;;;24.83;;
12878;SDS011;20617;49.476;10.986;2023-02-12T07:38:43;37.78;;;26.35;;
12878;SDS011;20617;49.476;10.986;2023-02-12T07:40:48;40.95;;;27.88;;
12878;SDS011;20617;49.476;10.986;2023-02-12T07:42:54;38.08;;;27.00;;
12878;SDS011;20617;49.476;10.986;2023-02-12T07:44:59;39.10;;;27.23;;
12878;SDS011;20617;49.476;10.986;2023-02-12T07:47:04;38.92;;;27.45;;
12878;SDS011;20617;49.476;10.986;2023-02-12T07:49:10;40.05;;;28.65;;
12878;SDS011;20617;49.476;10.986;2023-02-12T07:51:16;35.97;;;25.73;;
12878;SDS011;20617;49.476;10.986;2023-02-12T07:53:24;34.88;;;25.58;;
12878;SDS011;20617;49.476;10.986;2023-02-12T07:55:29;40.42;;;27.45;;
12878;SDS011;20617;49.476;10.986;2023-02-12T07:57:34;37.30;;;26.63;;
12878;SDS011;20617;49.476;10.986;2023-02-12T07:59:39;43.85;;;30.50;;
12878;SDS011;20617;49.476;10.986;2023-02-12T08:01:45;39.80;;;28.73;;
12878;SDS011;20617;49.476;10.986;2023-02-12T08:03:51;38.60;;;28.35;;
12878;SDS011;20617;49.476;10.986;2023-02-12T08:05:56;42.63;;;30.15;;
12878;SDS011;20617;49.476;10.986;2023-02-12T08:08:01;40.92;;;28.70;;
12878;SDS011;20617;49.476;10.986;2023-02-12T08:10:12;39.88;;;29.83;;
12878;SDS011;20617;49.476;10.986;2023-02-12T08:12:17;47.20;;;30.60;;
12878;SDS011;20617;49.476;10.986;2023-02-12T08:14:22;43.80;;;29.83;;
12878;SDS011;20617;49.476;10.986;2023-02-12T08:16:27;42.30;;;28.30;;
12878;SDS011;20617;49.476;10.986;2023-02-12T08:18:33;38.75;;;26.98;;
12878;SDS011;20617;49.476;10.986;2023-02-12T08:20:38;42.22;;;30.42;;
12878;SDS011;20617;49.476;10.986;2023-02-12T08:22:43;39.28;;;27.17;;
12878;SDS011;20617;49.476;10.986;2023-02-12T08:24:48;40.08;;;27.15;;
12878;SDS011;20617;49.476;10.986;2023-02-12T08:26:56;39.65;;;28.42;;
12878;SDS011;20617;49.476;10.986;2023-02-12T08:29:02;38.67;;;25.75;;
12878;SDS011;20617;49.476;10.986;2023-02-12T08:31:09;36.33;;;25.73;;
12878;SDS011;20617;49.476;10.986;2023-02-12T08:33:15;39.72;;;26.50;;
12878;SDS011;20617;49.476;10.986;2023-02-12T08:35:20;40.38;;;27.23;;
12878;SDS011;20617;49.476;10.986;2023-02-12T08:37:25;40.00;;;28.25;;
12878;SDS011;20617;49.476;10.986;2023-02-12T08:39:30;42.22;;;29.02;;
12878;SDS011;20617;49.476;10.986;2023-02-12T08:41:35;40.95;;;27.45;;
12878;SDS011;20617;49.476;10.986;2023-02-12T08:43:43;40.10;;;27.92;;
12878;SDS011;20617;49.476;10.986;2023-02-12T08:45:48;40.60;;;28.80;;
12878;SDS011;20617;49.476;10.986;2023-02-12T08:47:54;44.03;;;30.20;;
12878;SDS011;20617;49.476;10.986;2023-02-12T08:49:58;44.88;;;30.98;;
12878;SDS011;20617;49.476;10.986;2023-02-12T08:52:04;46.15;;;31.27;;
12878;SDS011;20617;49.476;10.986;2023-02-12T08:54:10;44.53;;;29.15;;
12878;SDS011;20617;49.476;10.986;2023-02-12T08:56:16;46.08;;;29.50;;
12878;SDS011;20617;49.476;10.986;2023-02-12T08:58:21;43.60;;;30.58;;
12878;SDS011;20617;49.476;10.986;2023-02-12T09:00:29;50.00;;;32.97;;
12878;SDS011;20617;49.476;10.986;2023-02-12T09:02:33;47.25;;;30.80;;
12878;SDS011;20617;49.476;10.986;2023-02-12T09:04:38;48.15;;;30.98;;
12878;SDS011;20617;49.476;10.986;2023-02-12T09:06:44;42.60;;;29.45;;
12878;SDS011;20617;49.476;10.986;2023-02-12T09:08:49;46.40;;;29.60;;
12878;SDS011;20617;49.476;10.986;2023-02-12T09:10:57;46.47;;;32.45;;
12878;SDS011;20617;49.476;10.986;2023-02-12T09:13:02;45.90;;;31.27;;
12878;SDS011;20617;49.476;10.986;2023-02-12T09:15:07;45.95;;;29.85;;
12878;SDS011;20617;49.476;10.986;2023-02-12T09:17:15;45.33;;;29.30;;
12878;SDS011;20617;49.476;10.986;2023-02-12T09:19:20;42.50;;;29.52;;
12878;SDS011;20617;49.476;10.986;2023-02-12T09:21:25;48.00;;;29.88;;
12878;SDS011;20617;49.476;10.986;2023-02-12T09:23:30;53.03;;;33.58;;
12878;SDS011;20617;49.476;10.986;2023-02-12T09:25:39;51.92;;;32.75;;
12878;SDS011;20617;49.476;10.986;2023-02-12T09:27:45;51.85;;;32.85;;
12878;SDS011;20617;49.476;10.986;2023-02-12T09:29:50;43.22;;;29.77;;
12878;SDS011;20617;49.476;10.986;2023-02-12T09:31:55;55.85;;;32.55;;
12878;SDS011;20617;49.476;10.986;2023-02-12T09:34:03;51.55;;;33.20;;
12878;SDS011;20617;49.476;10.986;2023-02-12T09:36:10;55.25;;;32.75;;
12878;SDS011;20617;49.476;10.986;2023-02-12T09:38:16;57.92;;;35.97;;
12878;SDS011;20617;49.476;10.986;2023-02-12T09:40:24;57.10;;;35.35;;
12878;SDS011;20617;49.476;10.986;2023-02-12T09:42:42;54.45;;;33.00;;
12878;SDS011;20617;49.476;10.986;2023-02-12T09:45:05;60.83;;;32.97;;
12878;SDS011;20617;49.476;10.986;2023-02-12T09:47:20;60.75;;;35.67;;
12878;SDS011;20617;49.476;10.986;2023-02-12T09:49:45;60.38;;;35.22;;
12878;SDS011;20617;49.476;10.986;2023-02-12T09:52:12;55.22;;;33.22;;
12878;SDS011;20617;49.476;10.986;2023-02-12T09:54:20;55.40;;;34.05;;
12878;SDS011;20617;49.476;10.986;2023-02-12T09:56:32;56.70;;;35.25;;
12878;SDS011;20617;49.476;10.986;2023-02-12T09:58:40;60.00;;;35.60;;
12878;SDS011;20617;49.476;10.986;2023-02-12T10:00:49;60.20;;;37.47;;
12878;SDS011;20617;49.476;10.986;2023-02-12T10:02:59;74.70;;;45.75;;
12878;SDS011;20617;49.476;10.986;2023-02-12T10:05:13;58.30;;;36.35;;
12878;SDS011;20617;49.476;10.986;2023-02-12T10:07:24;63.00;;;36.20;;
12878;SDS011;20617;49.476;10.986;2023-02-12T10:09:44;69.53;;;43.40;;
12878;SDS011;20617;49.476;10.986;2023-02-12T10:12:03;62.65;;;37.42;;
12878;SDS011;20617;49.476;10.986;2023-02-12T10:14:20;64.28;;;38.42;;
12878;SDS011;20617;49.476;10.986;2023-02-12T10:16:41;59.25;;;36.53;;
12878;SDS011;20617;49.476;10.986;2023-02-12T10:19:05;58.65;;;34.97;;
12878;SDS011;20617;49.476;10.986;2023-02-12T10:21:23;49.13;;;33.40;;
12878;SDS011;20617;49.476;10.986;2023-02-12T10:23:47;55.47;;;33.30;;
12878;SDS011;20617;49.476;10.986;2023-02-12T10:26:05;45.03;;;29.40;;
12878;SDS011;20617;49.476;10.986;2023-02-12T10:28:22;35.65;;;23.55;;
12878;SDS011;20617;49.476;10.986;2023-02-12T10:30:30;50.00;;;30.42;;
12878;SDS011;20617;49.476;10.986;2023-02-12T10:32:43;46.22;;;27.80;;
12878;SDS011;20617;49.476;10.986;2023-02-12T10:34:51;40.42;;;26.02;;
12878;SDS011;20617;49.476;10.986;2023-02-12T10:37:01;42.88;;;27.48;;
12878;SDS011;20617;49.476;10.986;2023-02-12T10:39:11;34.63;;;21.60;;
12878;SDS011;20617;49.476;10.986;2023-02-12T10:41:20;36.30;;;22.65;;
12878;SDS011;20617;49.476;10.986;2023-02-12T10:43:28;36.80;;;23.85;;
12878;SDS011;20617;49.476;10.986;2023-02-12T10:45:33;44.55;;;26.77;;
12878;SDS011;20617;49.476;10.986;2023-02-12T10:47:40;43.85;;;28.20;;
12878;SDS011;20617;49.476;10.986;2023-02-12T10:49:45;40.25;;;24.42;;
12878;SDS011;20617;49.476;10.986;2023-02-12T10:52:01;40.00;;;24.08;;
12878;SDS011;20617;49.476;10.986;2023-02-12T10:56:40;41.95;;;26.42;;
12878;SDS011;20617;49.476;10.986;2023-02-12T10:58:55;42.17;;;24.95;;
12878;SDS011;20617;49.476;10.986;2023-02-12T11:01:02;39.25;;;23.10;;
12878;SDS011;20617;49.476;10.986;2023-02-12T11:03:17;36.88;;;23.70;;
12878;SDS011;20617;49.476;10.986;2023-02-12T11:05:25;41.95;;;24.50;;
12878;SDS011;20617;49.476;10.986;2023-02-12T11:07:45;36.20;;;22.65;;
12878;SDS011;20617;49.476;10.986;2023-02-12T11:09:53;42.92;;;24.50;;
12878;SDS011;20617;49.476;10.986;2023-02-12T11:12:00;36.70;;;22.63;;
12878;SDS011;20617;49.476;10.986;2023-02-12T11:14:06;37.80;;;22.63;;
12878;SDS011;20617;49.476;10.986;2023-02-12T11:16:28;34.17;;;21.58;;
12878;SDS011;20617;49.476;10.986;2023-02-12T11:18:35;38.25;;;22.92;;
12878;SDS011;20617;49.476;10.986;2023-02-12T11:20:41;40.13;;;23.02;;
12878;SDS011;20617;49.476;10.986;2023-02-12T11:23:00;39.65;;;26.33;;
12878;SDS011;20617;49.476;10.986;2023-02-12T11:25:09;41.00;;;25.05;;
12878;SDS011;20617;49.476;10.986;2023-02-12T11:27:20;35.60;;;22.80;;
12878;SDS011;20617;49.476;10.986;2023-02-12T11:29:29;41.00;;;24.85;;
12878;SDS011;20617;49.476;10.986;2023-02-12T11:31:34;35.60;;;23.80;;
12878;SDS011;20617;49.476;10.986;2023-02-12T11:33:42;38.65;;;23.95;;
12878;SDS011;20617;49.476;10.986;2023-02-12T11:35:48;40.05;;;25.27;;
12878;SDS011;20617;49.476;10.986;2023-02-12T11:38:00;32.50;;;20.52;;
12878;SDS011;20617;49.476;10.986;2023-02-12T11:40:12;35.30;;;22.55;;
12878;SDS011;20617;49.476;10.986;2023-02-12T11:42:21;35.10;;;21.10;;
12878;SDS011;20617;49.476;10.986;2023-02-12T11:44:30;31.17;;;20.02;;
12878;SDS011;20617;49.476;10.986;2023-02-12T11:46:37;30.77;;;20.38;;
12878;SDS011;20617;49.476;10.986;2023-02-12T11:48:43;31.23;;;21.42;;
12878;SDS011;20617;49.476;10.986;2023-02-12T11:50:51;29.75;;;19.75;;
12878;SDS011;20617;49.476;10.986;2023-02-12T11:53:02;30.55;;;19.27;;
12878;SDS011;20617;49.476;10.986;2023-02-12T11:55:17;34.10;;;21.30;;
12878;SDS011;20617;49.476;10.986;2023-02-12T11:57:34;33.33;;;20.23;;
12878;SDS011;20617;49.476;10.986;2023-02-12T11:59:41;37.83;;;23.08;;
12878;SDS011;20617;49.476;10.986;2023-02-12T12:01:50;30.08;;;19.58;;
12878;SDS011;20617;49.476;10.986;2023-02-12T12:03:59;29.38;;;19.58;;
12878;SDS011;20617;49.476;10.986;2023-02-12T12:06:12;36.45;;;24.42;;
12878;SDS011;20617;49.476;10.986;2023-02-12T12:08:27;34.08;;;20.85;;
12878;SDS011;20617;49.476;10.986;2023-02-12T12:10:38;31.67;;;21.17;;
12878;SDS011;20617;49.476;10.986;2023-02-12T12:12:48;32.38;;;23.02;;
12878;SDS011;20617;49.476;10.986;2023-02-12T12:14:56;31.02;;;21.27;;
12878;SDS011;20617;49.476;10.986;2023-02-12T12:17:18;31.73;;;21.65;;
12878;SDS011;20617;49.476;10.986;2023-02-12T12:19:40;32.05;;;20.27;;
12878;SDS011;20617;49.476;10.986;2023-02-12T12:21:58;30.52;;;18.88;;
12878;SDS011;20617;49.476;10.986;2023-02-12T12:24:12;30.27;;;20.10;;
12878;SDS011;20617;49.476;10.986;2023-02-12T12:26:21;30.90;;;20.02;;
12878;SDS011;20617;49.476;10.986;2023-02-12T12:28:30;32.92;;;20.10;;
12878;SDS011;20617;49.476;10.986;2023-02-12T12:30:41;34.67;;;20.45;;
12878;SDS011;20617;49.476;10.986;2023-02-12T12:32:53;30.73;;;20.00;;
12878;SDS011;20617;49.476;10.986;2023-02-12T12:35:03;29.75;;;19.92;;
12878;SDS011;20617;49.476;10.986;2023-02-12T12:37:13;34.78;;;23.45;;
12878;SDS011;20617;49.476;10.986;2023-02-12T12:39:33;35.38;;;22.40;;
12878;SDS011;20617;49.476;10.986;2023-02-12T12:41:41;29.77;;;19.17;;
12878;SDS011;20617;49.476;10.986;2023-02-12T12:44:03;40.35;;;25.80;;
12878;SDS011;20617;49.476;10.986;2023-02-12T12:46:30;29.23;;;20.38;;
12878;SDS011;20617;49.476;10.986;2023-02-12T12:51:28;34.53;;;21.70;;
12878;SDS011;20617;49.476;10.986;2023-02-12T12:53:45;28.27;;;19.83;;
12878;SDS011;20617;49.476;10.986;2023-02-12T12:56:07;33.55;;;21.02;;